Tropical Cyclones
[Index]
Main Index Home Page Stock Weather Photos Extreme Storms Discussion Storm News and Storm Chasing Reports Tropical Cyclones / Hurricanes / Typhoons Weather Data and Links Wild Fires / Bushfires Weather Observation Techniques Weather Picture Catalogue Tornado Pictures and Reports Stock Video Footage and DVDs for sale
Season 1995-1996 Tropical Cyclone GERTIE Track Map
Season 1995-1996 Summaries: [BoM-AU] [JTWC-AU] [JTWC-SIO] [JTWC-SPAC] [JTWC-SH]
<<- Previous TC | JTWC 1995-1996 Season | Next TC ->>

click for intensity scale information  Lat/long Grid: Show Hide

 Date Labels: Show Hide

Joint Typhoon Warning Centre Cyclone Data

Name: GERTIE

14 Dec 1995 00:00 UTC to 21 Dec 1995 18:00 UTC

    date/time    lat    long     hPa   cat  kts
1995-12-14 00   15.5   134.8                  15          
1995-12-14 06   13.9   135.2                  15          
1995-12-14 12   12.6   134.5                  15          
1995-12-14 18   11.9   132.7                  20          
1995-12-15 00   11.7   131.3                  20          
1995-12-15 06   11.7   130.3                  20          
1995-12-15 12   11.7   129.4                  20          
1995-12-15 18   11.7   128.6                  25          
1995-12-16 00   11.7   127.8                  25          
1995-12-16 06   11.9   127.1                  25          
1995-12-16 12   12.1   126.5                  25          
1995-12-16 18   12.3   125.9                  25          
1995-12-17 00   12.8   125.4                  30          
1995-12-17 06   13.2   124.9                  30          
1995-12-17 12   13.7   124.5                  30          
1995-12-17 18   14.4   123.8                  30          
1995-12-18 00   15.0   123.0                  35          
1995-12-18 06   15.5   122.2                  35          
1995-12-18 12   16.0   121.4                  35          
1995-12-18 18   16.6   121.0                  35          
1995-12-19 00   17.2   120.7            2     55          
1995-12-19 06   17.8   120.4            2     55          
1995-12-19 12   18.5   120.1            2     55          
1995-12-19 18   19.1   120.2            2     55          
1995-12-20 00   19.8   120.7            2     60          
1995-12-20 06   20.5   121.5            2     65          
1995-12-20 12   21.2   122.5            3     75          
1995-12-20 18   22.1   123.7            2     65          
1995-12-21 00   23.1   125.1            2     55          
1995-12-21 06   24.1   126.9            1     50          
1995-12-21 12   24.8   128.9                  30          
1995-12-21 18   25.7   131.1                  25          
Winds are 1-min average.

Tropical cyclone tracks developed by Michael Bath using data from the Joint Typhoon Warning Centre Best Tracks and Google Maps.


[Australian Severe Weather index] [Copyright Notice] [Email Contacts] [Search This Site] [Privacy Policy]
Document: tropical_cyclone_gertie.htm Updated: 18 September 2016